Time;durP1;ratioP1;P1;durP2;ratioP2;P2;SDS_P1;SDS_P2;PMS_P1;PMS_P2;Temp;Humidity;BMP_temperature;BMP_pressure;BME280_temperature;BME280_humidity;BME280_pressure;Samples;Min_cycle;Max_cycle;Signal;HPM_P1;HPM_P2
2020/12/25 00:01:20;;;;;;;0.70;0.70;;;;;;;-0.69;86.68;95274.91;5091968;28;20222;-75
2020/12/25 00:03:45;;;;;;;1.00;0.90;;;;;;;-0.70;86.38;95277.56;5087996;28;20171;-76
2020/12/25 00:06:10;;;;;;;0.80;0.80;;;;;;;-0.71;86.58;95273.34;5077609;28;20203;-75
2020/12/25 00:08:36;;;;;;;0.90;0.90;;;;;;;-0.70;86.98;95270.72;5112626;28;20643;-75
2020/12/25 00:11:01;;;;;;;1.20;1.00;;;;;;;-0.77;86.94;95284.72;5100211;28;20233;-75
2020/12/25 00:13:26;;;;;;;0.80;0.80;;;;;;;-0.69;86.44;95284.28;5092151;28;20200;-75
2020/12/25 00:15:51;;;;;;;0.93;0.90;;;;;;;-0.70;86.75;95283.47;5089861;28;20207;-75
2020/12/25 00:18:17;;;;;;;1.30;1.20;;;;;;;-0.70;86.90;95285.19;5091740;28;20202;-76
2020/12/25 00:20:42;;;;;;;0.97;0.80;;;;;;;-0.69;86.67;95285.09;5073477;28;20183;-75
2020/12/25 00:23:07;;;;;;;1.10;1.10;;;;;;;-0.76;86.83;95288.09;5072316;28;20181;-75
2020/12/25 00:25:33;;;;;;;1.10;1.00;;;;;;;-0.73;86.70;95286.16;5060385;28;20271;-75
2020/12/25 00:27:58;;;;;;;0.90;0.90;;;;;;;-0.71;86.76;95291.19;5094173;28;20631;-75
2020/12/25 00:30:23;;;;;;;0.93;0.90;;;;;;;-0.68;87.02;95296.94;5112101;28;20282;-75
2020/12/25 00:32:48;;;;;;;1.20;1.10;;;;;;;-0.69;86.57;95297.03;5078073;28;20208;-75
2020/12/25 00:35:14;;;;;;;1.30;1.17;;;;;;;-0.64;86.89;95297.59;5073831;28;20200;-75
2020/12/25 00:37:39;;;;;;;1.00;1.00;;;;;;;-0.65;86.72;95294.22;5074246;28;20193;-75
2020/12/25 00:40:04;;;;;;;1.03;1.03;;;;;;;-0.53;86.72;95302.06;5091539;28;20176;-75
2020/12/25 00:42:30;;;;;;;1.37;1.27;;;;;;;-0.62;86.73;95296.63;5089797;28;20564;-75
2020/12/25 00:44:55;;;;;;;2.07;1.60;;;;;;;-0.59;86.71;95300.72;5073590;28;20275;-75
2020/12/25 00:47:20;;;;;;;1.53;1.43;;;;;;;-0.60;86.92;95301.63;5091897;28;20641;-75
2020/12/25 00:49:46;;;;;;;1.63;1.53;;;;;;;-0.65;86.92;95298.50;5091620;28;20217;-76
2020/12/25 00:52:11;;;;;;;1.73;1.60;;;;;;;-0.63;87.01;95300.03;5091840;28;20204;-75
2020/12/25 00:54:36;;;;;;;1.97;1.60;;;;;;;-0.59;86.47;95298.16;5071336;28;20696;-75
2020/12/25 00:57:02;;;;;;;2.60;2.07;;;;;;;-0.62;87.16;95305.97;5107073;28;20196;-76
2020/12/25 00:59:27;;;;;;;1.67;1.57;;;;;;;-0.54;86.92;95314.00;5111808;28;20186;-76
2020/12/25 01:01:52;;;;;;;2.00;1.33;;;;;;;-0.58;86.89;95307.44;5093815;28;20191;-75
2020/12/25 01:04:19;;;;;;;3.63;2.00;;;;;;;-0.63;87.00;95315.34;5080459;28;20188;-75
2020/12/25 01:06:44;;;;;;;2.00;1.77;;;;;;;-0.55;86.61;95309.00;5061310;28;20587;-75
2020/12/25 01:09:10;;;;;;;2.47;2.00;;;;;;;-0.59;87.15;95321.13;5093652;28;20179;-75
2020/12/25 01:11:35;;;;;;;3.67;1.97;;;;;;;-0.60;86.86;95322.84;5076956;28;20232;-75
2020/12/25 01:14:01;;;;;;;4.17;2.20;;;;;;;-0.62;87.19;95316.16;5091607;28;20219;-75
2020/12/25 01:16:26;;;;;;;2.40;2.20;;;;;;;-0.52;87.03;95321.59;5090715;28;20710;-75
2020/12/25 01:18:51;;;;;;;4.30;2.33;;;;;;;-0.54;86.79;95323.38;5091330;28;20177;-75
2020/12/25 01:21:17;;;;;;;2.80;2.23;;;;;;;-0.51;87.04;95333.44;5091423;28;20213;-75
2020/12/25 01:23:43;;;;;;;2.53;1.97;;;;;;;-0.57;86.80;95332.03;5056844;28;20250;-75
2020/12/25 01:26:09;;;;;;;2.20;2.00;;;;;;;-0.61;86.94;95336.50;5069529;28;20232;-75
2020/12/25 01:28:35;;;;;;;3.13;1.87;;;;;;;-0.59;87.35;95346.63;5060234;28;20204;-76
2020/12/25 01:31:33;;;;;;;2.80;1.80;;;;;;;-0.58;86.83;95350.81;5094288;28;20249;-75
2020/12/25 01:33:58;;;;;;;2.23;2.00;;;;;;;-0.54;87.27;95351.44;5094773;28;20222;-75
2020/12/25 01:36:23;;;;;;;2.90;2.00;;;;;;;-0.53;87.02;95359.03;5073387;28;20302;-75
2020/12/25 01:38:49;;;;;;;2.17;1.97;;;;;;;-0.53;87.19;95359.03;5103149;28;20655;-75
2020/12/25 01:41:14;;;;;;;2.97;1.90;;;;;;;-0.46;86.91;95362.88;5077146;28;20722;-76
2020/12/25 01:43:39;;;;;;;3.13;2.23;;;;;;;-0.51;86.97;95369.16;5077010;28;20173;-75
2020/12/25 01:46:05;;;;;;;2.57;2.30;;;;;;;-0.47;86.92;95371.44;5093840;28;20235;-75
2020/12/25 01:48:30;;;;;;;3.10;1.73;;;;;;;-0.46;86.62;95378.19;5075407;28;20279;-75
2020/12/25 01:50:56;;;;;;;2.40;1.90;;;;;;;-0.51;86.71;95377.63;5076926;28;20207;-75
2020/12/25 01:53:23;;;;;;;2.20;1.90;;;;;;;-0.55;86.84;95388.06;5076811;28;20261;-75
2020/12/25 01:55:49;;;;;;;2.17;1.90;;;;;;;-0.57;87.00;95383.88;5076978;28;20200;-75
2020/12/25 01:58:16;;;;;;;2.43;2.23;;;;;;;-0.56;87.18;95384.69;5074451;28;20249;-75
2020/12/25 02:00:42;;;;;;;2.20;2.00;;;;;;;-0.60;87.05;95380.69;5076511;28;20203;-75
2020/12/25 02:03:07;;;;;;;3.10;2.50;;;;;;;-0.59;87.19;95388.25;5094855;28;20173;-75
2020/12/25 02:05:32;;;;;;;2.60;2.20;;;;;;;-0.58;87.63;95389.88;5076396;28;20835;-75
2020/12/25 02:07:59;;;;;;;3.00;2.37;;;;;;;-0.54;87.43;95397.38;5057771;28;20765;-75
2020/12/25 02:10:24;;;;;;;3.23;2.50;;;;;;;-0.52;87.46;95387.91;5096060;28;20202;-75
2020/12/25 02:12:50;;;;;;;4.50;2.43;;;;;;;-0.46;87.19;95402.88;5079783;28;20259;-75
2020/12/25 02:15:15;;;;;;;2.60;2.40;;;;;;;-0.54;87.42;95408.38;5096232;28;20202;-75
2020/12/25 02:17:47;;;;;;;3.50;2.90;;;;;;;-0.53;87.56;95404.97;5114865;28;20179;-75
2020/12/25 02:20:13;;;;;;;2.97;2.50;;;;;;;-0.52;87.42;95414.25;5094526;28;20675;-75
2020/12/25 02:22:39;;;;;;;3.83;2.30;;;;;;;-0.44;86.90;95418.91;5062422;28;20168;-75
2020/12/25 02:25:05;;;;;;;2.93;2.63;;;;;;;-0.44;86.87;95419.75;5096608;28;20199;-75
2020/12/25 02:27:30;;;;;;;2.33;2.10;;;;;;;-0.47;86.87;95417.34;5096654;28;20179;-75
2020/12/25 02:29:55;;;;;;;2.03;1.83;;;;;;;-0.49;87.02;95424.28;5103884;28;20317;-75
2020/12/25 02:32:20;;;;;;;2.30;2.00;;;;;;;-0.51;87.04;95420.16;5076011;28;20194;-75
2020/12/25 02:34:46;;;;;;;3.10;2.00;;;;;;;-0.53;86.94;95416.84;5094067;28;20214;-75
2020/12/25 02:37:11;;;;;;;2.90;2.50;;;;;;;-0.50;86.81;95420.09;5075055;28;20183;-75
2020/12/25 02:39:36;;;;;;;2.87;2.30;;;;;;;-0.48;87.06;95425.91;5076160;28;20605;-75
2020/12/25 02:42:02;;;;;;;2.33;2.07;;;;;;;-0.49;87.04;95429.38;5091826;28;20193;-75
2020/12/25 02:44:27;;;;;;;1.97;1.77;;;;;;;-0.53;87.17;95439.81;5079052;28;20665;-75
2020/12/25 02:46:52;;;;;;;2.67;2.07;;;;;;;-0.52;87.03;95432.09;5079251;28;20279;-75
2020/12/25 02:49:18;;;;;;;2.37;2.17;;;;;;;-0.56;87.08;95428.06;5095932;28;20184;-75
2020/12/25 02:51:43;;;;;;;2.40;2.20;;;;;;;-0.53;87.16;95432.16;5099840;28;20197;-75
2020/12/25 02:54:08;;;;;;;2.30;2.10;;;;;;;-0.53;87.04;95427.06;5101535;28;20663;-75
2020/12/25 02:56:33;;;;;;;3.47;2.40;;;;;;;-0.55;87.56;95439.91;5095941;28;20279;-75
2020/12/25 02:58:59;;;;;;;3.57;2.40;;;;;;;-0.58;87.76;95435.81;5113973;28;20183;-75
2020/12/25 03:01:24;;;;;;;3.00;2.30;;;;;;;-0.55;87.17;95434.81;5073691;28;20199;-75
2020/12/25 03:03:49;;;;;;;2.50;2.30;;;;;;;-0.52;86.77;95439.75;5087109;28;20211;-75
2020/12/25 03:06:14;;;;;;;2.30;2.10;;;;;;;-0.55;87.33;95439.09;5095749;28;20691;-75
2020/12/25 03:08:40;;;;;;;2.20;2.00;;;;;;;-0.54;87.25;95436.44;5113669;28;20237;-75
2020/12/25 03:11:05;;;;;;;2.30;2.10;;;;;;;-0.60;87.03;95439.34;5078931;28;20186;-75
2020/12/25 03:13:31;;;;;;;2.83;1.97;;;;;;;-0.67;87.84;95438.84;5096019;28;20363;-75
2020/12/25 03:15:56;;;;;;;2.13;1.93;;;;;;;-0.62;87.58;95441.13;5078266;28;20198;-75
2020/12/25 03:18:21;;;;;;;2.47;2.27;;;;;;;-0.63;87.58;95445.41;5095420;28;20275;-75
2020/12/25 03:20:47;;;;;;;2.70;2.43;;;;;;;-0.60;87.40;95437.63;5113579;28;20193;-75
2020/12/25 03:23:12;;;;;;;2.53;2.33;;;;;;;-0.60;87.38;95437.63;5083823;28;20177;-75
2020/12/25 03:25:38;;;;;;;3.13;2.57;;;;;;;-0.60;87.34;95441.91;5082793;28;20192;-75
2020/12/25 03:28:03;;;;;;;3.67;3.33;;;;;;;-0.60;87.76;95445.28;5093203;28;20180;-75
2020/12/25 03:30:29;;;;;;;4.00;3.57;;;;;;;-0.62;87.36;95449.63;5078043;28;20184;-75
2020/12/25 03:32:54;;;;;;;3.90;3.33;;;;;;;-0.61;87.50;95448.72;5095242;28;20199;-75
2020/12/25 03:35:19;;;;;;;5.43;3.50;;;;;;;-0.60;87.87;95447.81;5074355;28;20262;-75
2020/12/25 03:37:45;;;;;;;3.50;3.10;;;;;;;-0.65;87.31;95444.69;5074831;28;20184;-75
2020/12/25 03:40:10;;;;;;;4.83;3.30;;;;;;;-0.63;88.11;95445.41;5057881;28;20184;-75
2020/12/25 03:42:36;;;;;;;3.83;3.43;;;;;;;-0.63;87.81;95439.50;5074929;28;20204;-75
2020/12/25 03:45:05;;;;;;;3.43;3.10;;;;;;;-0.58;87.29;95440.09;5066556;28;20209;-75
2020/12/25 03:47:30;;;;;;;4.73;3.83;;;;;;;-0.60;87.75;95442.72;5077227;28;20183;-75
2020/12/25 03:49:55;;;;;;;4.07;3.33;;;;;;;-0.62;87.66;95439.44;5094334;28;20538;-76
2020/12/25 03:52:21;;;;;;;3.87;3.47;;;;;;;-0.63;87.81;95442.03;5077855;28;20183;-75
2020/12/25 03:54:47;;;;;;;6.10;4.10;;;;;;;-0.62;87.62;95448.78;5073219;28;20205;-75
2020/12/25 03:57:12;;;;;;;5.13;4.10;;;;;;;-0.59;87.65;95453.75;5057702;28;20176;-75
2020/12/25 03:59:38;;;;;;;5.73;4.50;;;;;;;-0.62;87.80;95453.88;5094604;28;20258;-75
2020/12/25 04:02:03;;;;;;;4.77;4.23;;;;;;;-0.54;87.71;95451.75;5112823;28;20263;-76
2020/12/25 04:04:29;;;;;;;5.07;4.07;;;;;;;-0.56;87.60;95451.00;5077599;28;20183;-75
2020/12/25 04:06:54;;;;;;;6.40;4.87;;;;;;;-0.52;87.56;95460.16;5078190;28;20184;-75
2020/12/25 04:09:19;;;;;;;5.03;4.40;;;;;;;-0.51;87.59;95455.88;5100462;28;20183;-75
2020/12/25 04:11:44;;;;;;;6.43;4.80;;;;;;;-0.56;87.44;95466.31;5074374;28;20555;-75
2020/12/25 04:14:10;;;;;;;5.37;4.50;;;;;;;-0.49;87.38;95465.09;5074053;28;20287;-75
2020/12/25 04:16:35;;;;;;;5.20;4.37;;;;;;;-0.56;87.44;95473.97;5072413;28;20231;-75
2020/12/25 04:19:00;;;;;;;7.10;5.57;;;;;;;-0.54;87.52;95466.22;5073904;28;20172;-75
2020/12/25 04:21:26;;;;;;;7.23;5.43;;;;;;;-0.57;87.73;95477.44;5073946;28;20177;-75
2020/12/25 04:23:51;;;;;;;6.67;5.47;;;;;;;-0.55;87.94;95477.34;5074243;28;20176;-76
2020/12/25 04:26:17;;;;;;;7.60;5.80;;;;;;;-0.53;87.66;95478.06;5074169;28;20192;-76
2020/12/25 04:28:42;;;;;;;6.90;5.07;;;;;;;-0.58;87.65;95470.69;5089444;28;20181;-75
2020/12/25 04:31:08;;;;;;;6.87;5.33;;;;;;;-0.54;87.90;95476.44;5108151;28;20553;-75
2020/12/25 04:33:33;;;;;;;6.70;5.40;;;;;;;-0.58;87.53;95478.34;5111180;28;20613;-75
2020/12/25 04:35:58;;;;;;;6.80;5.17;;;;;;;-0.53;87.67;95485.72;5094155;28;20203;-75
2020/12/25 04:38:24;;;;;;;6.87;5.33;;;;;;;-0.54;87.78;95487.47;5099393;28;20191;-75
2020/12/25 04:40:49;;;;;;;7.50;5.47;;;;;;;-0.60;87.78;95482.72;5076798;28;20164;-75
2020/12/25 04:43:15;;;;;;;6.40;4.87;;;;;;;-0.59;87.61;95490.28;5094144;28;20206;-75
2020/12/25 04:45:40;;;;;;;5.80;5.10;;;;;;;-0.60;87.61;95491.19;5093833;28;20196;-75
2020/12/25 04:48:06;;;;;;;5.73;4.70;;;;;;;-0.56;87.42;95502.03;5089494;28;20671;-75
2020/12/25 04:50:31;;;;;;;5.70;4.47;;;;;;;-0.52;87.25;95498.44;5073462;28;20203;-75
2020/12/25 04:52:59;;;;;;;9.40;4.80;;;;;;;-0.58;87.65;95499.56;5073845;28;20207;-75
2020/12/25 04:55:24;;;;;;;5.67;5.00;;;;;;;-0.55;87.43;95498.56;5073699;28;20279;-76
2020/12/25 04:57:50;;;;;;;5.40;4.77;;;;;;;-0.57;87.55;95508.03;5073684;28;20243;-75
2020/12/25 05:00:19;;;;;;;6.67;5.70;;;;;;;-0.51;87.55;95509.44;5073231;28;20198;-76
2020/12/25 05:02:47;;;;;;;6.40;5.00;;;;;;;-0.58;87.31;95511.50;5076489;28;20657;-74
2020/12/25 05:05:12;;;;;;;7.40;4.77;;;;;;;-0.57;87.40;95508.03;5083532;28;20198;-75
2020/12/25 05:07:38;;;;;;;8.87;5.30;;;;;;;-0.65;87.44;95516.09;5100700;28;20187;-75
2020/12/25 05:10:06;;;;;;;6.33;5.07;;;;;;;-0.60;87.67;95528.63;5109044;28;20328;-76
2020/12/25 05:12:33;;;;;;;8.70;5.63;;;;;;;-0.61;87.68;95524.44;5063234;28;20204;-75
2020/12/25 05:14:58;;;;;;;6.10;5.17;;;;;;;-0.59;87.50;95515.78;5079986;28;20847;-74
2020/12/25 05:17:24;;;;;;;8.17;5.70;;;;;;;-0.61;87.95;95522.69;5097182;28;20191;-75
2020/12/25 05:19:49;;;;;;;9.40;6.00;;;;;;;-0.60;87.76;95528.63;5098169;28;20185;-75
2020/12/25 05:22:16;;;;;;;9.50;5.77;;;;;;;-0.59;87.20;95531.09;5062347;28;20176;-75
2020/12/25 05:24:42;;;;;;;7.70;6.20;;;;;;;-0.63;87.65;95528.75;5080101;28;20241;-75
2020/12/25 05:27:14;;;;;;;8.67;5.57;;;;;;;-0.64;87.52;95532.22;5063365;28;20567;-75
2020/12/25 05:29:40;;;;;;;8.87;6.10;;;;;;;-0.63;87.84;95528.75;5080216;28;20207;-76
2020/12/25 05:32:06;;;;;;;8.00;6.03;;;;;;;-0.60;87.72;95536.28;5081223;28;20171;-75
2020/12/25 05:34:34;;;;;;;8.90;6.00;;;;;;;-0.63;87.62;95528.75;5083570;28;20202;-75
2020/12/25 05:37:01;;;;;;;9.70;6.93;;;;;;;-0.61;87.71;95538.00;5117579;28;20172;-75
2020/12/25 05:39:27;;;;;;;10.27;6.77;;;;;;;-0.54;87.37;95538.47;5100538;28;20180;-75
2020/12/25 05:41:55;;;;;;;7.63;6.27;;;;;;;-0.56;87.58;95547.94;5093745;28;20195;-75
2020/12/25 05:44:21;;;;;;;10.73;6.60;;;;;;;-0.60;87.36;95546.47;5062100;28;20274;-75
2020/12/25 05:46:47;;;;;;;8.97;6.90;;;;;;;-0.59;87.65;95546.38;5084773;28;20610;-75
2020/12/25 05:49:12;;;;;;;9.07;6.23;;;;;;;-0.58;87.94;95554.84;5100065;28;20258;-75
2020/12/25 05:51:48;;;;;;;8.87;6.23;;;;;;;-0.62;87.48;95548.25;5118541;28;20271;-75
2020/12/25 05:54:20;;;;;;;7.97;5.90;;;;;;;-0.65;87.51;95554.34;5078440;28;20291;-75
2020/12/25 05:56:50;;;;;;;8.30;5.60;;;;;;;-0.64;87.64;95558.53;5100389;28;20172;-75
2020/12/25 05:59:22;;;;;;;8.17;5.53;;;;;;;-0.68;87.58;95561.34;5116991;28;20172;-75
2020/12/25 06:01:48;;;;;;;12.77;6.37;;;;;;;-0.65;87.90;95563.72;5100324;28;20176;-76
2020/12/25 06:04:14;;;;;;;10.03;6.80;;;;;;;-0.60;87.48;95566.88;5102223;28;20571;-75
2020/12/25 06:06:39;;;;;;;8.47;6.33;;;;;;;-0.62;87.84;95566.09;5110071;28;20200;-76
2020/12/25 06:09:06;;;;;;;10.50;6.70;;;;;;;-0.64;87.92;95567.91;5099918;28;20210;-75
2020/12/25 06:11:31;;;;;;;11.47;6.90;;;;;;;-0.64;87.96;95573.84;5099113;28;20599;-75
2020/12/25 06:14:00;;;;;;;14.10;8.03;;;;;;;-0.62;88.04;95566.09;5089047;28;20227;-75
2020/12/25 06:16:29;;;;;;;12.33;7.60;;;;;;;-0.70;87.91;95581.00;5096037;28;20200;-75
2020/12/25 06:19:25;;;;;;;10.23;6.43;;;;;;;-0.61;87.84;95583.09;5114812;28;20219;-76
2020/12/25 06:21:55;;;;;;;10.03;6.40;;;;;;;-0.67;87.61;95586.75;5115046;28;20168;-76
2020/12/25 06:24:21;;;;;;;9.03;6.53;;;;;;;-0.64;87.71;95584.03;5109616;28;20188;-75
2020/12/25 06:26:51;;;;;;;10.27;6.50;;;;;;;-0.66;87.84;95588.41;5082536;28;20272;-75
2020/12/25 06:29:16;;;;;;;6.97;6.20;;;;;;;-0.71;87.75;95582.72;5075905;28;20191;-75
2020/12/25 06:31:48;;;;;;;8.57;6.37;;;;;;;-0.70;88.21;95583.56;5076373;28;20251;-75
2020/12/25 06:34:13;;;;;;;7.03;5.57;;;;;;;-0.74;87.96;95592.25;5076357;28;20771;-75
2020/12/25 06:36:46;;;;;;;8.60;6.40;;;;;;;-0.73;87.97;95599.81;5074713;28;20283;-76
2020/12/25 06:39:19;;;;;;;8.27;5.63;;;;;;;-0.70;88.15;95597.13;5078812;28;20179;-75
2020/12/25 06:41:45;;;;;;;8.90;6.67;;;;;;;-0.79;88.16;95596.78;5096288;28;20195;-76
2020/12/25 06:44:17;;;;;;;8.53;6.67;;;;;;;-0.72;88.15;95600.63;5114472;28;20255;-76
2020/12/25 06:46:47;;;;;;;8.10;6.67;;;;;;;-0.79;88.10;95605.25;5070065;28;20184;-76
2020/12/25 06:49:14;;;;;;;9.83;6.70;;;;;;;-0.79;88.19;95612.06;5078928;28;20236;-75
2020/12/25 06:51:44;;;;;;;9.47;6.83;;;;;;;-0.81;88.53;95608.75;5114311;28;20182;-75
2020/12/25 06:54:20;;;;;;;10.73;6.67;;;;;;;-0.85;88.55;95615.75;5079186;28;20298;-76
2020/12/25 06:56:54;;;;;;;9.20;6.20;;;;;;;-0.80;88.83;95612.94;5103209;28;20177;-76
2020/12/25 06:59:22;;;;;;;8.77;6.47;;;;;;;-0.82;88.62;95618.13;5091329;28;20198;-75
2020/12/25 07:01:49;;;;;;;11.23;7.13;;;;;;;-0.82;88.42;95619.88;5062119;28;20175;-76
2020/12/25 07:04:24;;;;;;;10.27;7.00;;;;;;;-0.82;88.73;95624.97;5095869;28;20195;-76
2020/12/25 07:06:55;;;;;;;9.53;7.27;;;;;;;-0.87;88.43;95622.66;5093467;28;20253;-76
2020/12/25 07:09:21;;;;;;;14.27;7.90;;;;;;;-0.86;88.76;95626.84;5092629;28;20190;-75
2020/12/25 07:11:51;;;;;;;10.23;7.33;;;;;;;-0.83;88.44;95633.50;5095951;28;20266;-75
2020/12/25 07:14:16;;;;;;;11.83;8.00;;;;;;;-0.84;88.51;95640.34;5094938;28;20208;-76
2020/12/25 07:16:42;;;;;;;13.93;8.17;;;;;;;-0.83;88.30;95643.72;5095880;28;20259;-76
2020/12/25 07:19:07;;;;;;;10.00;7.10;;;;;;;-0.86;88.56;95642.97;5078331;28;20195;-75
2020/12/25 07:21:33;;;;;;;8.93;7.00;;;;;;;-0.79;88.69;95643.50;5066670;28;20180;-76
2020/12/25 07:23:59;;;;;;;14.77;9.60;;;;;;;-0.86;88.44;95650.63;5074545;28;20172;-76
2020/12/25 07:26:24;;;;;;;11.13;7.67;;;;;;;-0.77;88.25;95657.00;5058452;28;20204;-76
2020/12/25 07:28:50;;;;;;;13.50;8.07;;;;;;;-0.83;88.48;95659.00;5072914;28;20721;-76
2020/12/25 07:31:15;;;;;;;14.00;9.03;;;;;;;-0.90;88.72;95664.41;5058278;28;20206;-76
2020/12/25 07:33:41;;;;;;;11.33;7.67;;;;;;;-0.91;89.11;95661.94;5072863;28;20716;-76
2020/12/25 07:36:10;;;;;;;11.07;8.03;;;;;;;-0.89;89.12;95657.56;5077855;28;20248;-76
2020/12/25 07:38:35;;;;;;;14.53;8.53;;;;;;;-0.91;89.11;95665.31;5112161;28;20583;-76
2020/12/25 07:41:00;;;;;;;12.77;8.43;;;;;;;-0.80;89.15;95663.94;5080874;28;20190;-76
2020/12/25 07:43:25;;;;;;;12.23;7.53;;;;;;;-0.86;88.56;95671.00;5075997;28;20175;-76
2020/12/25 07:45:51;;;;;;;20.27;9.60;;;;;;;-0.80;88.79;95676.69;5092845;28;20200;-76
2020/12/25 07:48:18;;;;;;;11.57;8.73;;;;;;;-0.80;88.96;95682.63;5074855;28;20187;-76
2020/12/25 07:50:44;;;;;;;18.57;9.60;;;;;;;-0.82;88.56;95681.88;5055892;28;20191;-76
2020/12/25 07:53:12;;;;;;;13.73;8.87;;;;;;;-0.80;88.64;95686.91;5071129;28;20208;-76
2020/12/25 07:55:38;;;;;;;13.67;9.10;;;;;;;-0.68;88.67;95686.31;5054525;28;20283;-76
2020/12/25 07:58:03;;;;;;;13.73;9.03;;;;;;;-0.64;88.35;95695.44;5054468;28;20335;-76
2020/12/25 08:00:30;;;;;;;17.67;8.90;;;;;;;-0.66;88.48;95692.16;5038629;28;20779;-76
2020/12/25 08:02:57;;;;;;;13.57;9.20;;;;;;;-0.74;88.50;95691.69;5074379;28;20632;-76
2020/12/25 08:05:22;;;;;;;16.33;9.87;;;;;;;-0.73;88.63;95699.28;5077578;28;20207;-76
2020/12/25 08:07:48;;;;;;;12.27;9.70;;;;;;;-0.67;88.42;95700.72;5094647;28;20180;-76
2020/12/25 08:10:14;;;;;;;12.67;9.53;;;;;;;-0.65;88.49;95699.72;5094450;28;20233;-76
2020/12/25 08:12:49;;;;;;;14.93;9.80;;;;;;;-0.62;88.29;95703.84;5079290;28;20233;-76
2020/12/25 08:15:14;;;;;;;19.50;9.67;;;;;;;-0.60;88.41;95696.97;5076693;28;20590;-76
2020/12/25 08:17:40;;;;;;;14.03;9.23;;;;;;;-0.63;88.46;95702.19;5074215;28;20222;-76
2020/12/25 08:20:05;;;;;;;11.23;8.53;;;;;;;-0.59;88.41;95699.44;5074004;28;20524;-76
2020/12/25 08:22:31;;;;;;;13.67;9.40;;;;;;;-0.60;88.30;95707.16;5055790;28;20209;-76
2020/12/25 08:24:57;;;;;;;14.67;9.90;;;;;;;-0.58;88.08;95705.34;5100020;28;20598;-76
2020/12/25 08:27:23;;;;;;;28.07;11.97;;;;;;;-0.58;88.29;95705.34;5057464;28;20662;-76
2020/12/25 08:29:49;;;;;;;19.60;11.77;;;;;;;-0.54;88.19;95708.56;5073733;28;20188;-76
2020/12/25 08:32:14;;;;;;;49.43;14.37;;;;;;;-0.55;88.31;95710.28;5055909;28;20253;-76
2020/12/25 08:34:40;;;;;;;93.20;16.03;;;;;;;-0.51;88.34;95714.34;5072885;28;20286;-76
2020/12/25 08:37:07;;;;;;;25.17;12.40;;;;;;;-0.46;87.83;95714.94;5076893;28;20245;-76
2020/12/25 08:39:33;;;;;;;27.87;13.23;;;;;;;-0.46;87.70;95720.03;5093838;28;20310;-77
2020/12/25 08:41:59;;;;;;;35.40;13.30;;;;;;;-0.48;87.96;95718.47;5094601;28;20536;-76
2020/12/25 08:44:24;;;;;;;33.13;13.17;;;;;;;-0.55;88.03;95717.94;5096447;28;20188;-75
2020/12/25 08:46:50;;;;;;;17.07;11.93;;;;;;;-0.59;88.19;95714.72;5073726;28;20183;-76
2020/12/25 08:49:28;;;;;;;22.03;13.30;;;;;;;-0.57;88.42;95724.84;5073397;28;20180;-76
2020/12/25 08:51:53;;;;;;;25.30;13.90;;;;;;;-0.51;88.13;95723.72;5091427;28;20233;-76
2020/12/25 08:54:26;;;;;;;24.20;12.60;;;;;;;-0.48;88.06;95732.03;5051797;28;20216;-75
2020/12/25 08:56:51;;;;;;;21.37;12.50;;;;;;;-0.46;88.20;95734.50;5085932;28;20572;-75
2020/12/25 08:59:20;;;;;;;22.10;12.37;;;;;;;-0.45;88.02;95748.91;5075516;28;20190;-75
2020/12/25 09:01:46;;;;;;;21.83;12.80;;;;;;;-0.45;88.31;95741.25;5076711;28;20254;-75
2020/12/25 09:04:13;;;;;;;17.97;12.63;;;;;;;-0.47;88.32;95740.53;5093867;28;20603;-75
2020/12/25 09:06:38;;;;;;;19.60;11.97;;;;;;;-0.47;87.97;95753.28;5072854;28;20204;-75
2020/12/25 09:09:03;;;;;;;18.57;12.77;;;;;;;-0.46;88.23;95754.94;5068895;28;20191;-76
2020/12/25 09:11:29;;;;;;;19.53;12.67;;;;;;;-0.53;88.39;95758.69;5091621;28;20180;-76
2020/12/25 09:13:54;;;;;;;22.83;13.80;;;;;;;-0.58;88.50;95757.19;5091495;28;20203;-76
2020/12/25 09:16:19;;;;;;;21.83;13.40;;;;;;;-0.50;88.52;95761.09;5064211;28;20205;-75
2020/12/25 09:18:45;;;;;;;18.50;13.63;;;;;;;-0.51;88.56;95764.56;5083094;28;20233;-76
2020/12/25 09:21:12;;;;;;;27.00;13.90;;;;;;;-0.55;88.37;95763.84;5073438;28;20184;-76
2020/12/25 09:23:38;;;;;;;23.47;13.90;;;;;;;-0.55;88.11;95781.72;5056764;28;20196;-76
2020/12/25 09:26:07;;;;;;;19.77;13.00;;;;;;;-0.50;88.49;95782.31;5070280;28;20204;-76
2020/12/25 09:28:33;;;;;;;20.27;13.07;;;;;;;-0.55;88.36;95771.50;5055743;28;20206;-76
2020/12/25 09:30:58;;;;;;;19.67;12.90;;;;;;;-0.46;88.03;95773.63;5073585;28;20210;-76
2020/12/25 09:33:24;;;;;;;16.33;12.27;;;;;;;-0.51;88.16;95782.41;5091372;28;20250;-76
2020/12/25 09:35:50;;;;;;;17.20;12.07;;;;;;;-0.55;88.40;95784.25;5073520;28;20199;-76
2020/12/25 09:38:16;;;;;;;18.27;12.50;;;;;;;-0.61;88.43;95782.84;5088991;28;20698;-75
2020/12/25 09:40:41;;;;;;;20.80;13.67;;;;;;;-0.58;88.25;95802.28;5076289;28;20176;-76
2020/12/25 09:43:07;;;;;;;19.73;12.73;;;;;;;-0.54;88.27;95796.13;5091616;28;20214;-75
2020/12/25 09:45:32;;;;;;;17.13;10.77;;;;;;;-0.47;87.43;95805.13;5091167;28;20243;-77
2020/12/25 09:47:57;;;;;;;17.30;11.50;;;;;;;-0.46;87.46;95800.84;5074150;28;20184;-77
2020/12/25 09:50:23;;;;;;;17.33;11.10;;;;;;;-0.52;87.33;95803.72;5076845;28;20188;-78
2020/12/25 09:52:48;;;;;;;15.93;11.80;;;;;;;-0.58;87.65;95805.66;5077048;28;20180;-75
2020/12/25 09:55:40;;;;;;;17.70;11.40;;;;;;;-0.58;87.62;95804.84;5076905;28;20694;-75
2020/12/25 09:58:07;;;;;;;13.73;10.40;;;;;;;-0.43;87.21;95806.66;5092505;28;21610;-76
2020/12/25 10:00:32;;;;;;;16.57;10.57;;;;;;;-0.46;86.64;95809.31;5097092;28;20172;-75
2020/12/25 10:02:58;;;;;;;15.80;11.23;;;;;;;-0.39;86.31;95807.31;5096175;28;20560;-75
2020/12/25 10:05:23;;;;;;;14.47;10.00;;;;;;;-0.24;86.62;95815.94;5094596;28;20213;-75
2020/12/25 10:07:52;;;;;;;17.73;10.17;;;;;;;-0.16;86.39;95819.78;5076123;28;20180;-76
2020/12/25 10:10:18;;;;;;;16.60;9.93;;;;;;;-0.14;85.97;95807.75;5080234;28;20279;-75
2020/12/25 10:12:43;;;;;;;13.13;9.67;;;;;;;-0.09;85.76;95805.81;5059240;28;20172;-75
2020/12/25 10:15:08;;;;;;;15.93;9.83;;;;;;;-0.11;85.88;95806.78;5059650;28;20572;-75
2020/12/25 10:17:34;;;;;;;14.87;9.40;;;;;;;-0.14;85.33;95806.94;5075153;28;20655;-75
2020/12/25 10:19:59;;;;;;;14.87;10.37;;;;;;;-0.37;86.21;95808.06;5094290;28;20183;-75
2020/12/25 10:22:24;;;;;;;14.80;11.03;;;;;;;-0.46;86.07;95796.56;5094564;28;20180;-75
2020/12/25 10:24:49;;;;;;;14.80;9.97;;;;;;;-0.32;86.11;95798.47;5094362;28;20193;-75
2020/12/25 10:27:15;;;;;;;15.97;10.00;;;;;;;-0.42;85.82;95795.53;5059440;28;20180;-75
2020/12/25 10:29:40;;;;;;;14.97;10.00;;;;;;;-0.47;86.56;95794.09;5064315;28;20195;-75
2020/12/25 10:32:06;;;;;;;13.83;9.63;;;;;;;-0.53;86.76;95796.94;5080112;28;20180;-75
2020/12/25 10:34:31;;;;;;;14.23;10.10;;;;;;;-0.42;86.77;95803.19;5059295;28;20215;-75
2020/12/25 10:36:56;;;;;;;14.67;9.90;;;;;;;-0.41;86.40;95804.84;5076181;28;20184;-75
2020/12/25 10:39:21;;;;;;;13.80;9.60;;;;;;;-0.38;85.97;95809.78;5072059;28;20192;-75
2020/12/25 10:41:47;;;;;;;11.40;9.23;;;;;;;-0.45;86.29;95803.31;5098770;28;20182;-75
2020/12/25 10:44:12;;;;;;;27.93;19.37;;;;;;;-0.51;86.47;95808.75;5114570;28;20630;-75
2020/12/25 10:46:38;;;;;;;24.97;15.10;;;;;;;-0.55;86.74;95811.50;5096144;28;20267;-75
2020/12/25 10:49:03;;;;;;;14.53;9.83;;;;;;;-0.59;86.83;95815.94;5110384;28;20550;-76
2020/12/25 10:51:28;;;;;;;14.20;10.60;;;;;;;-0.75;87.40;95815.00;5083013;28;20196;-75
2020/12/25 10:53:54;;;;;;;11.43;8.80;;;;;;;-0.85;87.99;95824.81;5078866;28;20213;-75
2020/12/25 10:56:20;;;;;;;13.67;9.60;;;;;;;-0.69;87.83;95814.72;5078959;28;20195;-75
2020/12/25 10:58:45;;;;;;;12.23;9.10;;;;;;;-0.59;87.74;95810.84;5112977;28;20196;-75
2020/12/25 11:01:10;;;;;;;13.37;9.87;;;;;;;-0.56;87.12;95823.44;5080854;28;20278;-76
2020/12/25 11:03:36;;;;;;;13.63;9.20;;;;;;;-0.47;86.86;95815.34;5101761;28;20320;-75
2020/12/25 11:06:01;;;;;;;16.60;10.77;;;;;;;-0.45;86.34;95812.69;5075741;28;20196;-75
2020/12/25 11:08:26;;;;;;;16.73;11.27;;;;;;;-0.67;86.84;95815.47;5058796;28;20527;-75
2020/12/25 11:10:51;;;;;;;17.43;12.53;;;;;;;-0.52;86.81;95806.28;5072966;28;20191;-75
2020/12/25 11:13:17;;;;;;;23.27;15.63;;;;;;;-0.46;86.88;95809.31;5094233;28;20243;-76
2020/12/25 11:15:42;;;;;;;13.73;9.53;;;;;;;-0.39;86.59;95805.59;5113931;28;20199;-75
2020/12/25 11:18:07;;;;;;;16.63;12.43;;;;;;;-0.40;86.34;95801.38;5095791;28;20643;-75
2020/12/25 11:20:33;;;;;;;13.67;9.13;;;;;;;-0.49;86.60;95806.13;5095359;28;20662;-76
2020/12/25 11:22:58;;;;;;;13.30;10.20;;;;;;;-0.44;86.61;95802.44;5093925;28;20604;-76
2020/12/25 11:25:23;;;;;;;15.10;10.83;;;;;;;-0.43;86.43;95804.09;5075126;28;20278;-75